Time;durP1;ratioP1;P1;durP2;ratioP2;P2;SDS_P1;SDS_P2;PMS_P1;PMS_P2;Temp;Humidity;BMP_temperature;BMP_pressure;BME280_temperature;BME280_humidity;BME280_pressure;Samples;Min_cycle;Max_cycle;Signal;HPM_P1;HPM_P2
2022/09/26 00:00:44;;;;;;;0.00;0.00;;;13.30;99.90;;;;;;5014857;28;20060;-72
2022/09/26 00:03:10;;;;;;;0.30;0.30;;;13.30;99.90;;;;;;5037558;28;20041;-71
2022/09/26 00:05:37;;;;;;;0.00;0.00;;;13.20;99.90;;;;;;5029871;28;20042;-71
2022/09/26 00:08:04;;;;;;;0.10;0.10;;;13.30;99.90;;;;;;5035092;28;20046;-73
2022/09/26 00:10:31;;;;;;;0.10;0.10;;;13.20;99.90;;;;;;5032074;28;20068;-72
2022/09/26 00:12:56;;;;;;;0.10;0.10;;;13.20;99.90;;;;;;5031989;28;20500;-71
2022/09/26 00:15:23;;;;;;;0.10;0.10;;;13.30;99.90;;;;;;5032504;28;20042;-71
2022/09/26 00:17:48;;;;;;;0.10;0.10;;;13.20;99.90;;;;;;5037163;28;20088;-71
2022/09/26 00:20:14;;;;;;;0.10;0.10;;;13.20;99.90;;;;;;5030092;28;20501;-71
2022/09/26 00:22:40;;;;;;;0.00;0.00;;;13.30;99.90;;;;;;5031947;28;20076;-71
2022/09/26 00:25:06;;;;;;;0.00;0.00;;;13.20;99.90;;;;;;5050675;28;20045;-71
2022/09/26 00:27:31;;;;;;;4.07;1.55;;;13.30;99.90;;;;;;5049936;28;20041;-71
2022/09/26 00:29:57;;;;;;;0.10;0.10;;;13.30;99.90;;;;;;5036691;28;20042;-71
2022/09/26 00:32:23;;;;;;;0.20;0.20;;;13.20;99.90;;;;;;5036077;28;20553;-71
2022/09/26 00:34:49;;;;;;;0.10;0.10;;;13.30;99.90;;;;;;5030640;28;20049;-71
2022/09/26 00:37:15;;;;;;;0.00;0.00;;;13.30;99.90;;;;;;5030582;28;20057;-71
2022/09/26 00:39:41;;;;;;;0.10;0.10;;;13.30;99.90;;;;;;5042398;28;20064;-71
2022/09/26 00:42:11;;;;;;;0.03;0.03;;;13.30;99.90;;;;;;5029705;28;20041;-71
2022/09/26 00:44:46;;;;;;;0.00;0.00;;;13.30;99.90;;;;;;5031264;28;20045;-71
2022/09/26 00:47:37;;;;;;;0.10;0.10;;;13.30;99.90;;;;;;5032945;28;20049;-71
2022/09/26 00:50:15;;;;;;;0.10;0.10;;;13.30;99.90;;;;;;5025055;28;20482;-71
2022/09/26 00:52:55;;;;;;;0.10;0.10;;;13.30;99.90;;;;;;5022216;28;20041;-71
2022/09/26 00:55:24;;;;;;;0.00;0.00;;;13.30;99.90;;;;;;5025963;28;20076;-71
2022/09/26 00:58:08;;;;;;;4.72;1.27;;;13.30;99.90;;;;;;5025138;28;20046;-71
2022/09/26 01:00:35;;;;;;;0.10;0.10;;;13.30;99.90;;;;;;5032361;28;20528;-71
2022/09/26 01:03:01;;;;;;;0.10;0.10;;;13.30;99.90;;;;;;5027298;28;20033;-71
2022/09/26 01:05:27;;;;;;;0.10;0.10;;;13.30;99.90;;;;;;5028943;28;20049;-71
2022/09/26 01:07:54;;;;;;;0.47;0.28;;;13.20;99.90;;;;;;5034181;28;20052;-71
2022/09/26 01:10:20;;;;;;;0.00;0.00;;;13.30;99.90;;;;;;5027101;28;20073;-72
2022/09/26 01:12:46;;;;;;;0.10;0.10;;;13.20;99.90;;;;;;5028461;28;20041;-72
2022/09/26 01:15:12;;;;;;;0.00;0.00;;;13.20;99.90;;;;;;5035634;28;20107;-72
2022/09/26 01:17:40;;;;;;;0.10;0.10;;;13.30;99.90;;;;;;5012430;28;20474;-72
2022/09/26 01:20:30;;;;;;;0.10;0.10;;;13.20;99.90;;;;;;5027046;28;20128;-72
2022/09/26 01:23:15;;;;;;;0.03;0.03;;;13.20;99.90;;;;;;5025460;28;20045;-72
2022/09/26 01:26:17;;;;;;;0.10;0.10;;;13.10;99.90;;;;;;5010352;28;20042;-72
2022/09/26 01:29:11;;;;;;;0.10;0.10;;;13.10;99.90;;;;;;5027224;28;20076;-72
2022/09/26 01:35:07;;;;;;;0.00;0.00;;;13.00;99.90;;;;;;5015671;28;20054;-72
2022/09/26 01:37:47;;;;;;;0.10;0.10;;;13.00;99.90;;;;;;5015307;28;20455;-71
2022/09/26 01:40:40;;;;;;;0.10;0.10;;;13.00;99.90;;;;;;5030271;28;20041;-72
2022/09/26 01:43:22;;;;;;;0.10;0.10;;;13.00;99.90;;;;;;5029923;28;20057;-72
2022/09/26 01:46:10;;;;;;;0.10;0.10;;;12.90;99.90;;;;;;5014958;28;20486;-72
2022/09/26 01:48:43;;;;;;;0.00;0.00;;;12.90;99.90;;;;;;5046646;28;20059;-71
2022/09/26 01:51:18;;;;;;;0.75;0.75;;;12.90;99.90;;;;;;5026131;28;20052;-70
2022/09/26 01:54:05;;;;;;;0.00;0.00;;;12.90;99.90;;;;;;5044762;28;20053;-71
2022/09/26 01:56:35;;;;;;;0.15;0.15;;;12.90;99.90;;;;;;5040968;28;20499;-71
2022/09/26 01:59:21;;;;;;;0.00;0.00;;;12.90;99.90;;;;;;5027032;28;20811;-70
2022/09/26 02:01:50;;;;;;;0.00;0.00;;;12.90;99.90;;;;;;5041840;28;20072;-71
2022/09/26 02:04:28;;;;;;;0.10;0.10;;;12.80;99.90;;;;;;5017917;28;20069;-70
2022/09/26 02:07:03;;;;;;;0.00;0.00;;;12.80;99.90;;;;;;5016359;28;20053;-71
2022/09/26 02:09:40;;;;;;;0.10;0.10;;;12.80;99.90;;;;;;5028484;28;20045;-71
2022/09/26 02:12:10;;;;;;;0.10;0.10;;;12.80;99.90;;;;;;5026760;28;20144;-71
2022/09/26 02:14:38;;;;;;;0.10;0.10;;;12.80;99.90;;;;;;5035871;28;20060;-71
2022/09/26 02:17:21;;;;;;;0.10;0.10;;;12.80;99.90;;;;;;5038327;28;20125;-71
2022/09/26 02:19:57;;;;;;;0.10;0.10;;;12.80;99.90;;;;;;5026917;28;20049;-71
2022/09/26 02:22:27;;;;;;;0.10;0.10;;;12.80;99.90;;;;;;5028508;28;20068;-70
2022/09/26 02:24:53;;;;;;;0.10;0.10;;;12.80;99.90;;;;;;5026919;28;20393;-71
2022/09/26 02:27:19;;;;;;;0.00;0.00;;;12.80;99.90;;;;;;5018598;28;20042;-71
2022/09/26 02:29:45;;;;;;;0.00;0.00;;;12.80;99.90;;;;;;5043535;28;20052;-71
2022/09/26 02:32:17;;;;;;;0.10;0.10;;;12.80;99.90;;;;;;5030099;28;20044;-71
2022/09/26 02:34:46;;;;;;;0.00;0.00;;;12.80;99.90;;;;;;5036488;28;20088;-70
2022/09/26 02:37:15;;;;;;;0.75;0.75;;;12.80;99.90;;;;;;5034888;28;20509;-70
2022/09/26 02:39:45;;;;;;;0.00;0.00;;;12.80;99.90;;;;;;5026617;28;20042;-70
2022/09/26 02:42:38;;;;;;;0.10;0.10;;;12.80;99.90;;;;;;5048968;28;20088;-70
2022/09/26 02:45:28;;;;;;;0.10;0.10;;;12.80;99.90;;;;;;5035392;28;20381;-71
2022/09/26 02:48:22;;;;;;;0.10;0.10;;;12.80;99.90;;;;;;5020130;28;20301;-71
2022/09/26 02:51:06;;;;;;;0.10;0.10;;;12.90;99.90;;;;;;5036573;28;20416;-71
2022/09/26 02:53:46;;;;;;;0.10;0.10;;;12.80;99.90;;;;;;5036936;28;20045;-71
2022/09/26 02:56:40;;;;;;;0.20;0.20;;;12.90;99.90;;;;;;5016084;28;20133;-71
2022/09/26 02:59:20;;;;;;;0.03;0.03;;;12.90;99.90;;;;;;5013735;28;20034;-71
2022/09/26 03:02:10;;;;;;;0.10;0.10;;;12.90;99.90;;;;;;5035248;28;20049;-72
2022/09/26 03:04:43;;;;;;;0.35;0.35;;;12.90;99.90;;;;;;5027001;28;20058;-72
2022/09/26 03:07:13;;;;;;;0.03;0.03;;;12.90;99.90;;;;;;5033538;28;20056;-71
2022/09/26 03:09:42;;;;;;;0.10;0.10;;;12.90;99.90;;;;;;5028644;28;20037;-71
2022/09/26 03:12:09;;;;;;;0.10;0.10;;;12.90;99.90;;;;;;5046634;28;20033;-71
2022/09/26 03:14:37;;;;;;;0.10;0.10;;;12.80;99.90;;;;;;5026460;28;20393;-71
2022/09/26 03:17:03;;;;;;;1.38;0.50;;;12.90;99.90;;;;;;5031831;28;20068;-71
2022/09/26 03:19:38;;;;;;;0.10;0.10;;;12.80;99.90;;;;;;5031039;28;20041;-70
2022/09/26 03:22:04;;;;;;;0.10;0.10;;;12.90;99.90;;;;;;5013625;28;20440;-70
2022/09/26 03:24:30;;;;;;;0.10;0.10;;;12.90;99.90;;;;;;5041691;28;20049;-70
2022/09/26 03:26:57;;;;;;;0.05;0.05;;;12.90;99.90;;;;;;5036748;28;20092;-70
2022/09/26 03:29:22;;;;;;;0.00;0.00;;;12.90;99.90;;;;;;5030853;28;20956;-70
2022/09/26 03:31:49;;;;;;;0.88;0.28;;;12.90;99.90;;;;;;5020020;28;20120;-72
2022/09/26 03:34:16;;;;;;;0.00;0.00;;;12.90;99.90;;;;;;5042197;28;20084;-71
2022/09/26 03:36:41;;;;;;;0.15;0.15;;;12.90;99.90;;;;;;5016280;28;20070;-71
2022/09/26 03:39:07;;;;;;;0.00;0.00;;;12.90;99.90;;;;;;5027097;28;20146;-71
2022/09/26 03:41:33;;;;;;;0.20;0.20;;;12.90;99.90;;;;;;5025352;28;20399;-72
2022/09/26 03:43:59;;;;;;;0.03;0.03;;;12.90;99.90;;;;;;5019799;28;20485;-71
2022/09/26 03:46:25;;;;;;;0.10;0.10;;;13.00;99.90;;;;;;5030306;28;20042;-72
2022/09/26 03:48:51;;;;;;;10.15;0.73;;;13.00;99.90;;;;;;5036098;28;20126;-72
2022/09/26 03:51:16;;;;;;;0.10;0.10;;;13.00;99.90;;;;;;5040025;28;20041;-72
2022/09/26 03:53:45;;;;;;;2.75;2.35;;;12.90;99.90;;;;;;5028702;28;20052;-72
2022/09/26 03:56:14;;;;;;;0.10;0.10;;;13.00;99.90;;;;;;5030922;28;20049;-72
2022/09/26 03:58:40;;;;;;;0.00;0.00;;;13.00;99.90;;;;;;5028823;28;20045;-72
2022/09/26 04:01:14;;;;;;;0.00;0.00;;;13.00;99.90;;;;;;5024740;28;20045;-72
2022/09/26 04:03:44;;;;;;;0.65;0.65;;;13.00;99.90;;;;;;5035792;28;20084;-72
2022/09/26 04:06:10;;;;;;;0.52;0.52;;;13.00;99.90;;;;;;5028144;28;20112;-73
2022/09/26 04:08:39;;;;;;;0.10;0.10;;;13.10;99.90;;;;;;5037865;28;20094;-73
2022/09/26 04:11:14;;;;;;;0.10;0.10;;;13.00;99.90;;;;;;5030787;28;20083;-72
2022/09/26 04:13:40;;;;;;;0.10;0.10;;;13.00;99.90;;;;;;5032237;28;20056;-72
2022/09/26 04:16:08;;;;;;;0.00;0.00;;;13.00;99.90;;;;;;5030239;28;20059;-71
2022/09/26 04:18:34;;;;;;;0.65;0.65;;;13.00;99.90;;;;;;5029670;28;20045;-71
2022/09/26 04:21:06;;;;;;;0.00;0.00;;;13.00;99.90;;;;;;5022399;28;20053;-71
2022/09/26 04:23:34;;;;;;;0.10;0.10;;;13.00;99.90;;;;;;5040457;28;20051;-70
2022/09/26 04:26:11;;;;;;;0.00;0.00;;;13.00;99.90;;;;;;5035131;28;20390;-71
2022/09/26 04:28:37;;;;;;;0.10;0.10;;;13.00;99.90;;;;;;5021445;28;20042;-71
2022/09/26 04:31:05;;;;;;;0.10;0.10;;;12.90;99.90;;;;;;5035211;28;20049;-71
2022/09/26 04:33:31;;;;;;;0.10;0.10;;;12.90;99.90;;;;;;5027494;28;20053;-71
2022/09/26 04:36:02;;;;;;;3.58;1.55;;;12.90;99.90;;;;;;5026885;28;20034;-72
2022/09/26 04:38:31;;;;;;;0.10;0.10;;;12.90;99.90;;;;;;5037477;28;20045;-71
2022/09/26 04:41:02;;;;;;;0.20;0.20;;;12.80;99.90;;;;;;5022313;28;20053;-71
2022/09/26 04:43:28;;;;;;;0.10;0.10;;;12.90;99.90;;;;;;5038980;28;20049;-71
2022/09/26 04:45:53;;;;;;;0.73;0.73;;;12.90;99.90;;;;;;5027874;28;20066;-71
2022/09/26 04:48:20;;;;;;;0.00;0.00;;;12.80;99.90;;;;;;5023239;28;20052;-72
2022/09/26 04:50:46;;;;;;;0.10;0.10;;;12.80;99.90;;;;;;5040178;28;20385;-72
2022/09/26 04:53:12;;;;;;;0.28;0.28;;;12.80;99.90;;;;;;5017577;28;20044;-71
2022/09/26 04:55:45;;;;;;;0.10;0.10;;;12.70;99.90;;;;;;5018771;28;20038;-71
2022/09/26 04:58:11;;;;;;;1.27;1.10;;;12.80;99.90;;;;;;5025551;28;20053;-71
2022/09/26 05:00:48;;;;;;;0.10;0.10;;;12.70;99.90;;;;;;5036950;28;20045;-71
2022/09/26 05:03:15;;;;;;;0.10;0.10;;;12.70;99.90;;;;;;5023157;28;20053;-70
2022/09/26 05:05:43;;;;;;;1.52;0.90;;;12.70;99.90;;;;;;5030930;28;20069;-71
2022/09/26 05:08:10;;;;;;;0.10;0.10;;;12.70;99.90;;;;;;5029502;28;20400;-71
2022/09/26 05:10:37;;;;;;;0.10;0.10;;;12.70;99.90;;;;;;5030607;28;20045;-71
2022/09/26 05:13:02;;;;;;;0.03;0.03;;;12.70;99.90;;;;;;5029806;28;20045;-71
2022/09/26 05:15:28;;;;;;;0.00;0.00;;;12.70;99.90;;;;;;5026738;28;20075;-71
2022/09/26 05:17:58;;;;;;;0.47;0.47;;;12.70;99.90;;;;;;5026222;28;20073;-69
2022/09/26 05:20:30;;;;;;;0.10;0.10;;;12.70;99.90;;;;;;5030916;28;20045;-70
2022/09/26 05:22:59;;;;;;;0.10;0.10;;;12.80;99.90;;;;;;5029282;28;20053;-70
2022/09/26 05:28:12;;;;;;;0.93;0.20;;;12.70;99.90;;;;;;5030643;28;20563;-70
2022/09/26 05:30:39;;;;;;;0.10;0.10;;;12.70;99.90;;;;;;5008819;28;20037;-70
2022/09/26 05:33:05;;;;;;;0.28;0.28;;;12.70;99.90;;;;;;5026416;28;20460;-70
2022/09/26 05:35:34;;;;;;;0.00;0.00;;;12.70;99.90;;;;;;5028919;28;20440;-71
2022/09/26 05:38:03;;;;;;;0.10;0.10;;;12.70;99.90;;;;;;5033893;28;20041;-71
2022/09/26 05:43:14;;;;;;;0.10;0.10;;;12.70;99.90;;;;;;5040317;28;20049;-72
2022/09/26 05:45:40;;;;;;;0.30;0.30;;;12.70;99.90;;;;;;5030870;28;20037;-72
2022/09/26 05:48:06;;;;;;;0.10;0.10;;;12.70;99.90;;;;;;5027140;28;20559;-71
2022/09/26 05:50:32;;;;;;;0.05;0.05;;;12.70;99.90;;;;;;5023927;28;20050;-71
2022/09/26 05:52:59;;;;;;;0.05;0.05;;;12.70;99.90;;;;;;5035387;28;20037;-72
2022/09/26 05:55:26;;;;;;;0.17;0.17;;;12.70;99.90;;;;;;5024450;28;20093;-72
2022/09/26 05:57:52;;;;;;;0.00;0.00;;;12.60;99.90;;;;;;5027399;28;20501;-72
2022/09/26 06:00:18;;;;;;;0.10;0.10;;;12.60;99.90;;;;;;5025553;28;20054;-71
2022/09/26 06:02:44;;;;;;;0.17;0.17;;;12.50;99.90;;;;;;5028432;28;20045;-72
2022/09/26 06:05:10;;;;;;;0.30;0.30;;;12.60;99.90;;;;;;5029023;28;20363;-72
2022/09/26 06:07:35;;;;;;;0.08;0.08;;;12.60;99.90;;;;;;5029416;28;20049;-71
2022/09/26 06:10:04;;;;;;;0.03;0.03;;;12.60;99.90;;;;;;5033429;28;20046;-72
2022/09/26 06:12:30;;;;;;;0.90;0.60;;;12.60;99.90;;;;;;5050712;28;20049;-72
2022/09/26 06:14:56;;;;;;;0.20;0.20;;;12.60;99.90;;;;;;5040347;28;20041;-73
2022/09/26 06:17:22;;;;;;;0.10;0.10;;;12.60;99.90;;;;;;5032710;28;20374;-71
2022/09/26 06:19:48;;;;;;;0.10;0.10;;;12.60;99.90;;;;;;5023932;28;20041;-72
2022/09/26 06:22:14;;;;;;;0.05;0.05;;;12.60;99.90;;;;;;5026372;28;20129;-72
2022/09/26 06:24:39;;;;;;;0.00;0.00;;;12.60;99.90;;;;;;5021107;28;20037;-70
2022/09/26 06:27:05;;;;;;;2.88;1.35;;;12.60;99.90;;;;;;5049064;28;20072;-71
2022/09/26 06:29:31;;;;;;;0.10;0.10;;;12.60;99.90;;;;;;5051772;28;20416;-71
2022/09/26 06:31:56;;;;;;;1.48;0.45;;;12.60;99.90;;;;;;5030419;28;20124;-71
2022/09/26 06:34:22;;;;;;;0.20;0.20;;;12.60;99.90;;;;;;5031819;28;20124;-70
2022/09/26 06:36:48;;;;;;;0.10;0.10;;;12.60;99.90;;;;;;5026441;28;20098;-72
2022/09/26 06:39:13;;;;;;;0.38;0.35;;;12.60;99.90;;;;;;5049173;28;20056;-71
2022/09/26 06:41:39;;;;;;;0.10;0.10;;;12.70;99.90;;;;;;5041833;28;20384;-72
2022/09/26 06:44:04;;;;;;;1.27;1.17;;;12.70;99.90;;;;;;5043620;28;20045;-72
2022/09/26 06:46:30;;;;;;;0.10;0.10;;;12.70;99.90;;;;;;5030554;28;20040;-72
2022/09/26 06:48:56;;;;;;;0.15;0.15;;;12.70;99.90;;;;;;5023028;28;20041;-72
2022/09/26 06:51:22;;;;;;;0.17;0.17;;;12.70;99.90;;;;;;5033143;28;20474;-72
2022/09/26 06:53:48;;;;;;;0.17;0.17;;;12.70;99.90;;;;;;5028281;28;20107;-72
2022/09/26 06:56:13;;;;;;;0.20;0.20;;;12.70;99.90;;;;;;5025488;28;20049;-72
2022/09/26 06:58:39;;;;;;;0.20;0.20;;;12.70;99.90;;;;;;5027986;28;20124;-72
2022/09/26 07:01:05;;;;;;;0.10;0.10;;;12.70;99.90;;;;;;5037943;28;20507;-71
2022/09/26 07:03:31;;;;;;;0.10;0.10;;;12.70;99.90;;;;;;5025097;28;20423;-72
2022/09/26 07:05:57;;;;;;;1.02;0.70;;;12.70;99.90;;;;;;5027093;28;20042;-72
2022/09/26 07:08:24;;;;;;;0.47;0.20;;;12.80;99.90;;;;;;5024104;28;20049;-72
2022/09/26 07:10:50;;;;;;;0.20;0.20;;;12.80;99.90;;;;;;5028570;28;20033;-71
2022/09/26 07:13:16;;;;;;;0.10;0.10;;;12.80;99.90;;;;;;5032189;28;20050;-72
2022/09/26 07:15:46;;;;;;;0.10;0.10;;;12.80;99.90;;;;;;5025008;28;20136;-72
2022/09/26 07:18:12;;;;;;;0.10;0.10;;;12.80;99.90;;;;;;5029748;28;20049;-72
2022/09/26 07:20:39;;;;;;;0.20;0.20;;;12.80;99.90;;;;;;5027974;28;20064;-74
2022/09/26 07:23:08;;;;;;;0.10;0.10;;;12.80;99.90;;;;;;5036910;28;20087;-72
2022/09/26 07:25:34;;;;;;;0.15;0.15;;;12.80;99.90;;;;;;5036583;28;20042;-72
2022/09/26 07:28:00;;;;;;;0.17;0.17;;;12.80;99.90;;;;;;5031802;28;20055;-72
2022/09/26 07:30:27;;;;;;;0.00;0.00;;;12.80;99.90;;;;;;5032201;28;20493;-71
2022/09/26 07:32:59;;;;;;;0.10;0.10;;;12.80;99.90;;;;;;5023758;28;20037;-74
2022/09/26 07:35:26;;;;;;;0.08;0.08;;;12.80;99.90;;;;;;5032690;28;20049;-75
2022/09/26 07:37:51;;;;;;;0.10;0.10;;;12.80;99.90;;;;;;5035801;28;20052;-74
2022/09/26 07:40:19;;;;;;;2.80;1.10;;;12.90;99.90;;;;;;5021224;28;20033;-73
2022/09/26 07:42:45;;;;;;;0.90;0.82;;;12.90;99.90;;;;;;5032863;28;20060;-74
2022/09/26 07:45:11;;;;;;;0.00;0.00;;;12.90;99.90;;;;;;5033847;28;20049;-74
2022/09/26 07:50:22;;;;;;;0.10;0.10;;;13.00;99.90;;;;;;5026979;28;20053;-73
2022/09/26 07:52:49;;;;;;;0.75;0.75;;;13.10;99.90;;;;;;5016760;28;20033;-72
2022/09/26 07:55:18;;;;;;;0.10;0.10;;;13.00;99.90;;;;;;5038336;28;20052;-73
2022/09/26 07:57:48;;;;;;;0.10;0.10;;;13.10;99.90;;;;;;5029371;28;20034;-74
2022/09/26 08:00:17;;;;;;;0.10;0.10;;;13.10;99.90;;;;;;4995688;28;1029148;-74
2022/09/26 08:02:45;;;;;;;0.10;0.10;;;13.10;99.90;;;;;;5027729;28;20044;-73
2022/09/26 08:05:18;;;;;;;1.42;1.33;;;13.10;99.90;;;;;;5030232;28;20053;-74
2022/09/26 08:07:45;;;;;;;;;;;13.10;99.90;;;;;;5021847;28;20441;-73
2022/09/26 08:10:19;;;;;;;0.22;0.22;;;13.20;99.90;;;;;;5023768;28;20024;-73
2022/09/26 08:12:46;;;;;;;0.10;0.10;;;13.20;99.90;;;;;;5024696;28;20196;-71
2022/09/26 08:15:12;;;;;;;1.33;0.60;;;13.20;99.90;;;;;;5022686;28;20053;-72
2022/09/26 08:17:38;;;;;;;0.63;0.63;;;13.20;99.90;;;;;;5036583;28;20044;-73
2022/09/26 08:20:04;;;;;;;0.10;0.10;;;13.20;99.90;;;;;;5029514;28;20497;-73
2022/09/26 08:22:30;;;;;;;0.00;0.00;;;13.30;99.90;;;;;;5029432;28;20118;-72
2022/09/26 08:24:56;;;;;;;0.10;0.10;;;13.20;99.90;;;;;;5037203;28;20076;-74
2022/09/26 08:27:22;;;;;;;0.05;0.05;;;13.20;99.90;;;;;;5030713;28;20045;-71
2022/09/26 08:29:49;;;;;;;0.22;0.22;;;13.20;99.90;;;;;;5035226;28;20049;-71
2022/09/26 08:32:16;;;;;;;0.10;0.10;;;13.20;99.90;;;;;;5027731;28;20128;-70
2022/09/26 08:34:43;;;;;;;0.57;0.57;;;13.20;99.90;;;;;;5020050;28;20065;-68
2022/09/26 08:37:09;;;;;;;0.17;0.17;;;13.10;99.90;;;;;;5043843;28;20119;-71
2022/09/26 08:39:34;;;;;;;0.85;0.82;;;13.10;99.90;;;;;;5031347;28;20136;-70
2022/09/26 08:42:03;;;;;;;0.05;0.05;;;13.10;99.90;;;;;;5028003;28;20072;-71
2022/09/26 08:44:44;;;;;;;0.10;0.10;;;13.10;99.90;;;;;;5036001;28;20041;-70
2022/09/26 08:47:37;;;;;;;0.10;0.10;;;13.00;99.90;;;;;;5027232;28;20068;-69
2022/09/26 08:50:31;;;;;;;0.10;0.10;;;12.90;99.90;;;;;;5021064;28;20719;-69
2022/09/26 08:53:14;;;;;;;0.85;0.55;;;12.90;99.90;;;;;;5021966;28;20076;-69
2022/09/26 08:55:43;;;;;;;0.00;0.00;;;12.80;99.90;;;;;;5023364;28;20417;-69
2022/09/26 08:58:30;;;;;;;0.28;0.28;;;12.80;99.90;;;;;;5034552;28;20080;-70
2022/09/26 09:00:59;;;;;;;0.10;0.10;;;12.80;99.90;;;;;;5029811;28;20048;-71
2022/09/26 09:03:28;;;;;;;0.10;0.10;;;12.70;99.90;;;;;;5023961;28;20050;-71
2022/09/26 09:06:06;;;;;;;0.10;0.10;;;12.60;99.90;;;;;;5021794;28;20138;-70
2022/09/26 09:08:41;;;;;;;0.22;0.22;;;12.60;99.90;;;;;;5018724;28;20046;-70
2022/09/26 09:11:21;;;;;;;1.08;0.57;;;12.60;99.90;;;;;;5016390;28;20073;-69
2022/09/26 09:13:59;;;;;;;0.03;0.03;;;12.60;99.90;;;;;;5035575;28;20500;-69
2022/09/26 09:17:02;;;;;;;0.10;0.10;;;12.60;99.90;;;;;;5025598;28;20053;-70
2022/09/26 09:19:43;;;;;;;0.45;0.45;;;12.60;99.90;;;;;;5037938;28;20057;-71
2022/09/26 09:22:25;;;;;;;0.10;0.10;;;12.60;99.90;;;;;;5025191;28;20330;-69
2022/09/26 09:25:02;;;;;;;0.30;0.30;;;12.60;99.90;;;;;;5023808;28;20100;-70
2022/09/26 09:27:36;;;;;;;0.10;0.10;;;12.60;99.90;;;;;;5020775;28;20092;-69
2022/09/26 09:30:21;;;;;;;0.10;0.10;;;12.60;99.90;;;;;;5021486;28;20051;-69
2022/09/26 09:32:53;;;;;;;0.10;0.10;;;12.60;99.90;;;;;;5026307;28;20056;-69
2022/09/26 09:35:32;;;;;;;0.30;0.30;;;12.60;99.90;;;;;;5032873;28;20045;-70
2022/09/26 09:37:58;;;;;;;0.10;0.10;;;12.60;99.90;;;;;;5011705;28;20053;-70
2022/09/26 09:40:34;;;;;;;0.10;0.10;;;12.60;99.90;;;;;;5038960;28;20045;-70
2022/09/26 09:43:04;;;;;;;0.10;0.10;;;12.60;99.90;;;;;;5035704;28;20042;-70
2022/09/26 09:45:30;;;;;;;0.10;0.10;;;12.60;99.90;;;;;;5032162;28;20090;-72
2022/09/26 09:47:56;;;;;;;0.10;0.10;;;12.60;99.90;;;;;;5017290;28;20460;-72
2022/09/26 09:50:45;;;;;;;0.13;0.13;;;12.60;99.90;;;;;;5027162;28;20045;-72
2022/09/26 09:53:25;;;;;;;0.10;0.10;;;12.70;99.90;;;;;;5020306;28;20099;-72
2022/09/26 09:55:58;;;;;;;0.10;0.10;;;12.70;99.90;;;;;;5017758;28;20072;-72
2022/09/26 09:58:42;;;;;;;0.00;0.00;;;12.60;99.90;;;;;;5023791;28;20508;-72
2022/09/26 10:01:19;;;;;;;0.10;0.10;;;12.60;99.90;;;;;;5020671;28;20057;-72
2022/09/26 10:04:19;;;;;;;0.15;0.15;;;12.60;99.90;;;;;;5020334;28;20050;-72
2022/09/26 10:06:47;;;;;;;0.10;0.10;;;12.50;99.90;;;;;;5030065;28;20049;-72
2022/09/26 10:09:23;;;;;;;0.13;0.13;;;12.50;99.90;;;;;;5029378;28;20046;-72
2022/09/26 10:11:51;;;;;;;0.00;0.00;;;12.50;99.90;;;;;;5033790;28;20080;-72
2022/09/26 10:14:32;;;;;;;0.20;0.20;;;12.40;99.90;;;;;;5046786;28;20077;-72
2022/09/26 10:17:10;;;;;;;0.13;0.13;;;12.40;99.90;;;;;;5029483;28;20163;-72
2022/09/26 10:19:42;;;;;;;0.20;0.20;;;12.40;99.90;;;;;;5025542;28;20045;-68
2022/09/26 10:22:18;;;;;;;0.30;0.30;;;12.40;99.90;;;;;;5026613;28;20084;-69
2022/09/26 10:24:46;;;;;;;0.17;0.17;;;12.40;99.90;;;;;;5026171;28;20099;-71
2022/09/26 10:27:31;;;;;;;0.10;0.10;;;12.40;99.90;;;;;;5026987;28;20107;-70
2022/09/26 10:29:59;;;;;;;0.10;0.10;;;12.40;99.90;;;;;;5014448;28;20049;-70
2022/09/26 10:32:25;;;;;;;0.10;0.10;;;12.40;99.90;;;;;;5033204;28;20049;-72
2022/09/26 10:35:06;;;;;;;0.47;0.47;;;12.40;99.90;;;;;;5013374;28;20084;-71
2022/09/26 10:37:35;;;;;;;0.10;0.10;;;12.40;99.90;;;;;;5020106;28;20042;-71
2022/09/26 10:42:46;;;;;;;0.88;0.70;;;12.40;99.90;;;;;;5028607;28;20049;-70
2022/09/26 10:45:26;;;;;;;0.20;0.20;;;12.50;99.90;;;;;;5037190;28;20061;-71
2022/09/26 10:47:54;;;;;;;0.22;0.22;;;12.40;99.90;;;;;;5024780;28;20210;-72
2022/09/26 10:50:27;;;;;;;0.10;0.10;;;12.40;99.90;;;;;;5036597;28;20051;-72
2022/09/26 10:53:00;;;;;;;0.03;0.03;;;12.50;99.90;;;;;;5035470;28;20240;-72
2022/09/26 10:55:41;;;;;;;0.35;0.35;;;12.50;99.90;;;;;;5033367;28;20055;-72
2022/09/26 10:58:13;;;;;;;0.10;0.10;;;12.60;99.90;;;;;;5029722;28;20041;-71
2022/09/26 11:00:43;;;;;;;0.10;0.10;;;12.60;99.90;;;;;;5032458;28;20068;-71
2022/09/26 11:03:13;;;;;;;0.10;0.10;;;12.70;99.90;;;;;;5040357;28;20049;-70
2022/09/26 11:05:56;;;;;;;0.17;0.17;;;12.70;99.90;;;;;;5035105;28;20055;-71
2022/09/26 11:08:47;;;;;;;0.17;0.17;;;12.70;99.90;;;;;;5033221;28;20050;-71
2022/09/26 11:11:16;;;;;;;0.65;0.65;;;12.70;99.90;;;;;;5044431;28;20369;-70
2022/09/26 11:13:57;;;;;;;0.10;0.10;;;12.70;99.90;;;;;;5033040;28;20508;-71
2022/09/26 11:16:23;;;;;;;0.10;0.10;;;12.80;99.90;;;;;;5019410;28;20062;-71
2022/09/26 11:19:21;;;;;;;0.10;0.10;;;12.70;99.90;;;;;;5034312;28;20042;-70
2022/09/26 11:22:02;;;;;;;0.10;0.10;;;12.80;99.90;;;;;;5030654;28;20504;-70
2022/09/26 11:25:02;;;;;;;0.20;0.20;;;12.90;99.90;;;;;;5033980;28;20056;-70
2022/09/26 11:27:45;;;;;;;0.10;0.10;;;12.90;99.90;;;;;;5044352;28;20060;-70
2022/09/26 11:30:18;;;;;;;0.25;0.25;;;12.90;99.90;;;;;;5040163;28;20052;-70
2022/09/26 11:32:48;;;;;;;16.35;0.63;;;13.00;99.90;;;;;;5036336;28;20038;-70
2022/09/26 11:35:32;;;;;;;0.10;0.10;;;13.10;99.90;;;;;;5031422;28;20049;-70
2022/09/26 11:38:21;;;;;;;0.10;0.10;;;13.20;99.90;;;;;;5038009;28;20090;-70
2022/09/26 11:41:35;;;;;;;0.10;0.10;;;13.30;99.90;;;;;;5035431;28;20397;-70
2022/09/26 11:44:31;;;;;;;0.00;0.00;;;13.30;99.90;;;;;;5020434;28;20088;-71
2022/09/26 11:47:12;;;;;;;0.20;0.20;;;13.20;99.90;;;;;;5033633;28;20045;-71
2022/09/26 11:49:50;;;;;;;0.30;0.30;;;13.30;99.90;;;;;;5032748;28;20050;-69
2022/09/26 11:52:35;;;;;;;0.10;0.10;;;13.50;99.90;;;;;;5033164;28;20045;-70
2022/09/26 11:55:29;;;;;;;0.10;0.10;;;13.60;99.90;;;;;;5029948;28;20509;-71
2022/09/26 11:58:09;;;;;;;0.10;0.10;;;13.50;99.90;;;;;;5030437;28;20050;-71
2022/09/26 12:00:56;;;;;;;0.00;0.00;;;13.70;99.90;;;;;;5032163;28;20091;-71
2022/09/26 12:03:54;;;;;;;0.10;0.10;;;13.80;99.90;;;;;;5032987;28;20109;-70
2022/09/26 12:06:32;;;;;;;0.47;0.47;;;14.00;99.90;;;;;;5032197;28;20046;-72
2022/09/26 12:09:26;;;;;;;0.20;0.20;;;14.00;99.90;;;;;;5033598;28;20049;-71
2022/09/26 12:11:58;;;;;;;;;;;14.00;99.90;;;;;;5031963;28;20464;-72
2022/09/26 12:14:46;;;;;;;0.17;0.17;;;14.00;99.90;;;;;;5031073;28;19971;-70
2022/09/26 12:17:39;;;;;;;0.10;0.10;;;14.00;99.90;;;;;;5042136;28;20045;-71
2022/09/26 12:20:32;;;;;;;0.10;0.10;;;14.00;99.90;;;;;;5020507;28;20053;-71
2022/09/26 12:23:13;;;;;;;0.45;0.45;;;14.00;99.90;;;;;;5023425;28;20433;-70
2022/09/26 12:25:53;;;;;;;0.40;0.40;;;13.90;99.90;;;;;;5028231;28;20048;-70
2022/09/26 12:28:47;;;;;;;0.10;0.10;;;13.80;99.90;;;;;;5030025;28;20064;-70
2022/09/26 12:31:49;;;;;;;0.15;0.15;;;13.80;99.90;;;;;;5027651;28;20424;-70
2022/09/26 12:34:30;;;;;;;0.43;0.38;;;13.80;99.90;;;;;;5030387;28;20608;-70
2022/09/26 12:37:14;;;;;;;0.25;0.25;;;13.80;99.90;;;;;;5032677;28;20053;-70
2022/09/26 12:40:01;;;;;;;0.10;0.10;;;13.90;99.90;;;;;;5028359;28;20553;-70
2022/09/26 12:42:44;;;;;;;0.00;0.00;;;14.00;99.90;;;;;;5035259;28;20041;-71
2022/09/26 12:45:34;;;;;;;0.15;0.15;;;14.00;99.90;;;;;;5030221;28;20049;-71
2022/09/26 12:48:41;;;;;;;1.13;1.02;;;14.10;99.90;;;;;;5038857;28;20124;-71
2022/09/26 12:51:18;;;;;;;0.10;0.10;;;14.10;99.90;;;;;;4998435;28;20229;-71
2022/09/26 12:54:21;;;;;;;0.10;0.10;;;14.10;99.90;;;;;;5024265;28;20847;-71
2022/09/26 12:57:10;;;;;;;1.10;0.47;;;14.30;99.90;;;;;;5037921;28;20128;-72
2022/09/26 12:59:54;;;;;;;0.10;0.10;;;14.40;99.90;;;;;;5033700;28;20049;-71
2022/09/26 13:02:41;;;;;;;0.30;0.20;;;14.80;99.90;;;;;;5041128;28;20124;-71
2022/09/26 13:05:42;;;;;;;0.45;0.45;;;15.00;99.90;;;;;;5023530;28;20045;-71
2022/09/26 13:09:00;;;;;;;0.10;0.10;;;15.10;99.90;;;;;;5025258;28;20051;-71
2022/09/26 13:11:58;;;;;;;0.00;0.00;;;15.00;99.90;;;;;;4999152;28;20099;-71
2022/09/26 13:15:02;;;;;;;0.30;0.30;;;14.90;99.90;;;;;;4972187;28;20058;-71
2022/09/26 13:17:41;;;;;;;0.00;0.00;;;15.00;99.90;;;;;;5030196;28;20057;-71
2022/09/26 13:20:20;;;;;;;0.08;0.08;;;15.40;99.90;;;;;;5041022;28;20049;-71
2022/09/26 13:23:02;;;;;;;0.00;0.00;;;16.00;99.90;;;;;;5019650;28;20061;-71
2022/09/26 13:25:48;;;;;;;0.10;0.10;;;15.90;99.90;;;;;;5028116;28;20421;-72
2022/09/26 13:28:40;;;;;;;0.00;0.00;;;15.80;99.90;;;;;;5038293;28;20065;-70
2022/09/26 13:31:18;;;;;;;0.32;0.32;;;15.70;99.90;;;;;;5024247;28;20049;-71
2022/09/26 13:33:57;;;;;;;1.38;0.55;;;15.80;99.90;;;;;;5035723;28;20052;-73
2022/09/26 13:36:24;;;;;;;0.20;0.20;;;16.20;99.90;;;;;;5022239;28;20068;-75